createdAt,value
2023-01-23T00:03:34.374Z,42.13
2023-01-23T00:06:22.347Z,40.35
2023-01-23T00:09:10.110Z,36.53
2023-01-23T00:11:57.415Z,40.33
2023-01-23T00:14:44.525Z,40.28
2023-01-23T00:17:31.566Z,40.95
2023-01-23T00:20:19.182Z,37.40
2023-01-23T00:23:06.901Z,36.42
2023-01-23T00:25:53.967Z,40.20
2023-01-23T00:28:41.312Z,35.38
2023-01-23T00:31:32.810Z,40.55
2023-01-23T00:34:20.055Z,34.75
2023-01-23T00:37:07.148Z,41.50
2023-01-23T00:39:54.183Z,36.28
2023-01-23T00:42:41.204Z,38.05
2023-01-23T00:45:28.266Z,33.92
2023-01-23T00:48:15.592Z,39.97
2023-01-23T00:51:02.705Z,42.65
2023-01-23T00:53:49.851Z,38.42
2023-01-23T00:56:37.068Z,41.65
2023-01-23T00:59:24.160Z,37.05
2023-01-23T01:02:11.225Z,39.05
2023-01-23T01:04:58.252Z,37.28
2023-01-23T01:07:45.888Z,41.67
2023-01-23T01:10:34.178Z,43.03
2023-01-23T01:13:23.799Z,39.80
2023-01-23T01:16:11.386Z,40.85
2023-01-23T01:18:58.625Z,41.85
2023-01-23T01:21:45.785Z,40.78
2023-01-23T01:24:32.982Z,40.55
2023-01-23T01:27:20.079Z,44.00
2023-01-23T01:30:10.089Z,40.85
2023-01-23T01:32:57.410Z,39.67
2023-01-23T01:35:44.634Z,41.78
2023-01-23T01:38:31.692Z,42.53
2023-01-23T01:41:18.897Z,44.05
2023-01-23T01:44:06.404Z,43.22
2023-01-23T01:46:53.933Z,44.28
2023-01-23T01:49:41.065Z,42.65
2023-01-23T01:52:29.173Z,41.78
2023-01-23T01:55:16.399Z,41.67
2023-01-23T01:58:03.643Z,43.40
2023-01-23T02:00:50.766Z,44.15
2023-01-23T02:03:38.851Z,43.53
2023-01-23T02:06:26.591Z,48.03
2023-01-23T02:09:26.828Z,45.50
2023-01-23T02:15:05.731Z,41.25
2023-01-23T02:17:54.862Z,41.63
2023-01-23T02:20:42.141Z,45.20
2023-01-23T02:23:41.201Z,41.15
2023-01-23T02:26:33.042Z,42.45
2023-01-23T02:29:20.695Z,44.35
2023-01-23T02:32:08.031Z,44.35
2023-01-23T02:34:57.864Z,43.25
2023-01-23T02:37:49.029Z,42.25
2023-01-23T02:40:38.731Z,43.00
2023-01-23T02:43:34.818Z,41.50
2023-01-23T02:46:21.925Z,40.15
2023-01-23T02:49:09.697Z,43.70
2023-01-23T02:51:57.405Z,40.38
2023-01-23T02:54:44.461Z,41.58
2023-01-23T02:57:31.545Z,36.92
2023-01-23T03:00:22.879Z,39.17
2023-01-23T03:03:10.022Z,45.63
2023-01-23T03:05:59.321Z,45.78
2023-01-23T03:08:49.380Z,46.07
2023-01-23T03:11:38.931Z,39.75
2023-01-23T03:14:26.790Z,35.95
2023-01-23T03:17:14.999Z,41.63
2023-01-23T03:20:03.652Z,42.45
2023-01-23T03:22:50.972Z,37.85
2023-01-23T03:25:43.044Z,42.42
2023-01-23T03:28:49.030Z,41.30
2023-01-23T03:31:36.228Z,46.08
2023-01-23T03:34:23.956Z,39.95
2023-01-23T03:37:12.521Z,42.72
2023-01-23T03:40:18.766Z,41.75
2023-01-23T03:43:06.682Z,44.72
2023-01-23T03:45:53.832Z,44.67
2023-01-23T03:48:41.039Z,43.65
2023-01-23T03:51:28.085Z,47.10
2023-01-23T03:54:15.115Z,43.13
2023-01-23T03:57:02.164Z,42.13
2023-01-23T03:59:49.279Z,48.20
2023-01-23T04:02:36.367Z,48.78
2023-01-23T04:05:23.641Z,49.55
2023-01-23T04:08:10.775Z,45.80
2023-01-23T04:11:06.626Z,46.95
2023-01-23T04:13:55.140Z,54.63
2023-01-23T04:16:42.232Z,48.35
2023-01-23T04:19:29.399Z,49.40
2023-01-23T04:22:16.516Z,48.90
2023-01-23T04:25:03.846Z,51.65
2023-01-23T04:27:51.000Z,49.97
2023-01-23T04:30:38.163Z,52.95
2023-01-23T04:33:25.310Z,53.35
2023-01-23T04:36:12.802Z,48.30
2023-01-23T04:39:00.012Z,50.50
2023-01-23T04:41:47.141Z,53.60
2023-01-23T04:44:34.180Z,51.38
2023-01-23T04:47:21.242Z,44.75
2023-01-23T04:50:08.919Z,46.63
2023-01-23T04:52:56.821Z,46.17
2023-01-23T04:55:47.592Z,45.25
2023-01-23T04:58:34.737Z,44.22
2023-01-23T05:01:23.447Z,48.20
2023-01-23T05:04:10.923Z,44.58
2023-01-23T05:06:58.035Z,48.10
2023-01-23T05:09:45.253Z,42.47
2023-01-23T05:12:32.973Z,45.28
2023-01-23T05:15:21.375Z,42.00
2023-01-23T05:18:08.508Z,41.22
2023-01-23T05:20:55.643Z,49.75
2023-01-23T05:23:42.705Z,50.33
2023-01-23T05:26:29.710Z,43.47
2023-01-23T05:29:16.938Z,50.60
2023-01-23T05:32:04.205Z,47.28
2023-01-23T05:34:51.325Z,44.80
2023-01-23T05:37:38.695Z,45.67
2023-01-23T05:40:25.806Z,44.80
2023-01-23T05:43:15.541Z,45.03
2023-01-23T05:46:03.199Z,50.85
2023-01-23T05:48:52.039Z,39.13
2023-01-23T05:51:39.128Z,45.40
2023-01-23T05:54:26.216Z,44.88
2023-01-23T05:57:13.382Z,40.75
2023-01-23T06:00:00.493Z,46.35
2023-01-23T06:02:47.705Z,47.75
2023-01-23T06:05:34.797Z,44.05
2023-01-23T06:08:21.901Z,45.15
2023-01-23T06:11:08.986Z,44.78
2023-01-23T06:13:56.013Z,45.10
2023-01-23T06:16:43.073Z,46.13
2023-01-23T06:19:30.084Z,44.92
2023-01-23T06:22:17.296Z,43.28
2023-01-23T06:25:04.991Z,47.92
2023-01-23T06:27:54.742Z,48.50
2023-01-23T06:30:42.100Z,44.35
2023-01-23T06:33:29.110Z,47.35
2023-01-23T06:36:16.194Z,48.10
2023-01-23T06:39:03.340Z,47.05
2023-01-23T06:41:50.419Z,48.42
2023-01-23T06:44:37.970Z,51.22
2023-01-23T06:47:25.246Z,41.70
2023-01-23T06:50:12.386Z,45.45
2023-01-23T06:52:59.437Z,48.45
2023-01-23T06:55:46.679Z,47.95
2023-01-23T06:58:34.877Z,46.35
2023-01-23T07:01:22.382Z,45.22
2023-01-23T07:04:09.500Z,51.83
2023-01-23T07:06:56.670Z,48.70
2023-01-23T07:09:43.843Z,50.55
2023-01-23T07:12:30.943Z,49.13
2023-01-23T07:15:18.187Z,50.28
2023-01-23T07:18:05.509Z,50.53
2023-01-23T07:20:52.618Z,54.70
2023-01-23T07:23:39.717Z,57.72
2023-01-23T07:26:26.911Z,64.32
2023-01-23T07:29:14.455Z,59.08
2023-01-23T07:32:01.660Z,51.50
2023-01-23T07:34:48.719Z,58.22
2023-01-23T07:37:36.445Z,51.70
2023-01-23T07:40:24.124Z,51.08
2023-01-23T07:43:12.245Z,55.72
2023-01-23T07:46:02.896Z,49.25
2023-01-23T07:48:49.940Z,48.15
2023-01-23T07:51:37.020Z,47.92
2023-01-23T07:54:24.085Z,47.80
2023-01-23T07:57:11.231Z,46.50
2023-01-23T07:59:58.289Z,51.25
2023-01-23T08:02:45.410Z,50.38
2023-01-23T08:05:32.485Z,50.80
2023-01-23T08:08:19.553Z,51.38
2023-01-23T08:11:10.326Z,49.05
2023-01-23T08:13:57.402Z,51.70
2023-01-23T08:16:44.612Z,64.28
2023-01-23T08:19:31.738Z,58.42
2023-01-23T08:22:18.788Z,54.08
2023-01-23T08:25:07.482Z,48.38
2023-01-23T08:27:54.617Z,46.40
2023-01-23T08:30:41.769Z,47.63
2023-01-23T08:33:28.923Z,45.90
2023-01-23T08:36:16.086Z,41.63
2023-01-23T08:39:04.173Z,42.28
2023-01-23T08:41:51.594Z,50.35
2023-01-23T08:44:39.288Z,49.65
2023-01-23T08:47:26.431Z,48.65
2023-01-23T08:50:13.851Z,49.63
2023-01-23T08:53:01.173Z,49.45
2023-01-23T08:55:48.276Z,53.97
2023-01-23T08:58:35.396Z,53.53
2023-01-23T09:01:25.134Z,52.10
2023-01-23T09:04:12.255Z,56.63
2023-01-23T09:06:59.321Z,53.35
2023-01-23T09:09:46.685Z,55.40
2023-01-23T09:12:33.731Z,55.25
2023-01-23T09:15:22.588Z,57.78
2023-01-23T09:18:09.739Z,53.08
2023-01-23T09:20:57.068Z,52.33
2023-01-23T09:23:44.494Z,56.63
2023-01-23T09:26:31.722Z,55.03
2023-01-23T09:29:18.833Z,54.75
2023-01-23T09:32:06.153Z,56.85
2023-01-23T09:34:55.018Z,49.90
2023-01-23T09:38:00.472Z,52.67
2023-01-23T09:40:53.592Z,53.58
2023-01-23T09:44:05.434Z,54.72
2023-01-23T09:47:02.679Z,49.85
2023-01-23T09:49:58.699Z,56.53
2023-01-23T09:53:00.345Z,51.20
2023-01-23T09:55:53.824Z,50.75
2023-01-23T09:58:51.613Z,54.58
2023-01-23T10:01:39.110Z,50.92
2023-01-23T10:04:26.254Z,57.83
2023-01-23T10:07:27.711Z,52.95
2023-01-23T10:10:31.857Z,50.38
2023-01-23T10:13:19.293Z,50.45
2023-01-23T10:16:50.793Z,48.22
2023-01-23T10:20:34.728Z,46.67
2023-01-23T10:23:24.610Z,53.15
2023-01-23T10:26:18.678Z,48.78
2023-01-23T10:29:38.610Z,49.55
2023-01-23T10:32:29.296Z,45.13
2023-01-23T10:35:22.841Z,46.88
2023-01-23T10:38:41.186Z,49.38
2023-01-23T10:41:28.363Z,38.10
2023-01-23T10:44:18.324Z,34.50
2023-01-23T10:47:20.703Z,24.90
2023-01-23T10:50:08.672Z,36.65
2023-01-23T10:53:07.036Z,27.55
2023-01-23T10:55:59.014Z,28.42
2023-01-23T10:58:49.484Z,31.05
2023-01-23T11:01:38.771Z,32.25
2023-01-23T11:04:30.458Z,26.25
2023-01-23T11:07:20.452Z,33.22
2023-01-23T11:10:07.572Z,28.90
2023-01-23T11:12:55.662Z,21.65
2023-01-23T11:15:42.841Z,20.55
2023-01-23T11:18:38.790Z,20.17
2023-01-23T11:21:32.781Z,20.27
2023-01-23T11:24:39.303Z,22.02
2023-01-23T11:27:31.175Z,22.35
2023-01-23T11:30:47.583Z,21.42
2023-01-23T11:33:41.820Z,21.60
2023-01-23T11:36:59.752Z,21.98
2023-01-23T11:40:01.827Z,22.63
2023-01-23T11:42:49.109Z,19.60
2023-01-23T11:46:01.262Z,20.27
2023-01-23T11:49:03.256Z,18.77
2023-01-23T11:52:13.367Z,19.40
2023-01-23T11:55:03.438Z,19.63
2023-01-23T11:58:25.900Z,18.52
2023-01-23T12:01:35.245Z,18.20
2023-01-23T12:04:22.347Z,20.73
2023-01-23T12:07:21.562Z,31.90
2023-01-23T12:10:26.462Z,22.48
2023-01-23T12:13:38.885Z,33.38
2023-01-23T12:16:48.249Z,40.92
2023-01-23T12:19:46.736Z,21.80
2023-01-23T12:22:55.383Z,40.00
2023-01-23T12:25:50.266Z,38.65
2023-01-23T12:37:16.619Z,47.38
2023-01-23T12:40:25.250Z,38.83
